createdAt,value
2019-05-29T00:01:41.555Z,72.79
2019-05-29T00:04:08.215Z,72.44
2019-05-29T00:06:34.830Z,73.57
2019-05-29T00:09:01.714Z,73.25
2019-05-29T00:11:29.890Z,73.18
2019-05-29T00:13:58.734Z,72.25
2019-05-29T00:16:25.336Z,72.87
2019-05-29T00:18:51.986Z,72.91
2019-05-29T00:21:18.719Z,71.94
2019-05-29T00:23:45.524Z,72.30
2019-05-29T00:26:12.494Z,72.05
2019-05-29T00:28:39.367Z,72.35
2019-05-29T00:31:06.077Z,72.12
2019-05-29T00:33:32.744Z,72.36
2019-05-29T00:35:59.373Z,71.84
2019-05-29T00:38:25.979Z,72.37
2019-05-29T00:40:52.663Z,72.07
2019-05-29T00:43:19.248Z,72.24
2019-05-29T00:45:47.231Z,72.88
2019-05-29T00:48:14.154Z,72.86
2019-05-29T00:50:40.811Z,72.55
2019-05-29T00:53:08.080Z,71.98
2019-05-29T00:55:35.664Z,71.89
2019-05-29T00:58:02.238Z,72.23
2019-05-29T01:00:28.933Z,71.89
2019-05-29T01:02:55.673Z,72.10
2019-05-29T01:05:22.643Z,72.20
2019-05-29T01:07:49.345Z,71.87
2019-05-29T01:10:16.776Z,72.32
2019-05-29T01:12:43.631Z,71.49
2019-05-29T01:15:11.270Z,71.02
2019-05-29T01:17:38.134Z,71.56
2019-05-29T01:20:05.975Z,71.35
2019-05-29T01:22:32.717Z,71.60
2019-05-29T01:24:59.400Z,72.20
2019-05-29T01:27:28.088Z,72.73
2019-05-29T01:29:54.612Z,71.68
2019-05-29T01:32:21.656Z,72.07
2019-05-29T01:34:48.628Z,72.51
2019-05-29T01:37:16.093Z,72.27
2019-05-29T01:39:43.079Z,72.46
2019-05-29T01:42:10.546Z,73.27
2019-05-29T01:44:37.226Z,73.21
2019-05-29T01:47:03.996Z,73.16
2019-05-29T01:49:30.907Z,73.12
2019-05-29T01:51:57.794Z,72.84
2019-05-29T01:54:24.492Z,73.45
2019-05-29T01:56:51.128Z,73.61
2019-05-29T01:59:17.824Z,74.33
2019-05-29T02:01:44.767Z,73.89
2019-05-29T05:39:51.953Z,53.40
2019-05-29T05:42:18.676Z,53.34
2019-05-29T05:44:48.203Z,51.20
2019-05-29T05:47:14.777Z,50.45
2019-05-29T05:49:41.845Z,49.63
2019-05-29T05:52:08.515Z,50.47
2019-05-29T05:54:35.401Z,49.37
2019-05-29T05:57:02.288Z,49.23
2019-05-29T05:59:29.002Z,47.80
2019-05-29T06:01:56.073Z,49.67
2019-05-29T06:04:22.734Z,48.49
2019-05-29T06:06:49.325Z,49.21
2019-05-29T06:09:15.928Z,48.80
2019-05-29T06:11:42.745Z,46.69
2019-05-29T06:14:09.435Z,46.21
2019-05-29T06:16:36.480Z,52.14
2019-05-29T06:19:03.460Z,50.95
2019-05-29T06:21:30.084Z,48.87
2019-05-29T06:23:56.837Z,51.32
2019-05-29T06:26:23.900Z,47.80
2019-05-29T06:28:50.463Z,45.60
2019-05-29T06:31:17.177Z,42.85
2019-05-29T06:33:44.797Z,43.75
2019-05-29T06:36:11.563Z,46.13
2019-05-29T06:38:38.181Z,50.25
2019-05-29T06:41:04.919Z,41.76
2019-05-29T06:43:31.494Z,41.75
2019-05-29T06:45:59.724Z,41.09
2019-05-29T06:48:41.758Z,42.54
2019-05-29T06:50:57.510Z,41.59
2019-05-29T06:53:25.613Z,43.13
2019-05-29T06:55:54.481Z,45.44
2019-05-29T06:58:21.407Z,40.34
2019-05-29T07:00:48.044Z,38.22
2019-05-29T07:03:15.121Z,39.50
2019-05-29T07:05:46.617Z,38.88
2019-05-29T07:08:19.047Z,39.22
2019-05-29T07:10:40.293Z,40.49
2019-05-29T07:13:07.241Z,38.94
2019-05-29T07:15:33.841Z,32.62
2019-05-29T07:18:00.540Z,31.21
2019-05-29T07:20:27.638Z,30.45
2019-05-29T07:22:54.414Z,31.15
2019-05-29T07:25:21.194Z,34.46
2019-05-29T07:27:47.768Z,35.63
2019-05-29T07:30:14.643Z,41.47
2019-05-29T07:32:43.215Z,42.16
2019-05-29T07:35:10.679Z,41.30
2019-05-29T07:37:37.817Z,45.90
2019-05-29T07:40:05.766Z,39.52
2019-05-29T07:42:32.409Z,39.44
2019-05-29T07:44:59.075Z,36.69
2019-05-29T07:47:25.826Z,39.28
2019-05-29T07:49:52.519Z,42.80
2019-05-29T07:52:19.186Z,40.77
2019-05-29T07:54:48.036Z,42.58
2019-05-29T07:58:09.894Z,43.13
2019-05-29T08:00:58.744Z,42.25
2019-05-29T08:03:05.571Z,45.31
2019-05-29T08:05:32.351Z,44.42
2019-05-29T08:07:59.102Z,44.21
2019-05-29T08:10:26.014Z,44.49
2019-05-29T08:12:55.572Z,45.86
2019-05-29T08:15:21.544Z,43.48
2019-05-29T08:17:48.471Z,43.23
2019-05-29T08:20:15.893Z,43.13
2019-05-29T08:22:42.556Z,44.16
2019-05-29T08:25:09.301Z,38.33
2019-05-29T08:27:35.927Z,40.24
2019-05-29T08:30:03.866Z,37.23
2019-05-29T08:32:30.507Z,41.49
2019-05-29T08:34:57.097Z,42.37
2019-05-29T08:37:25.696Z,40.74
2019-05-29T08:39:52.527Z,40.94
2019-05-29T08:42:23.359Z,36.20
2019-05-29T08:44:47.934Z,32.38
2019-05-29T08:47:15.041Z,33.77
2019-05-29T08:49:47.228Z,29.37
2019-05-29T08:52:12.708Z,28.59
2019-05-29T08:54:39.446Z,33.56
2019-05-29T08:57:06.344Z,35.84
2019-05-29T08:59:33.028Z,34.46
2019-05-29T09:01:59.681Z,38.92
2019-05-29T09:04:26.295Z,36.38
2019-05-29T09:06:53.540Z,37.71
2019-05-29T09:09:20.320Z,42.61
2019-05-29T09:11:47.627Z,39.22
2019-05-29T09:14:14.402Z,41.43
2019-05-29T09:16:41.011Z,42.51
2019-05-29T09:19:07.702Z,43.72
2019-05-29T09:21:34.866Z,43.50
2019-05-29T09:24:01.489Z,45.08
2019-05-29T09:26:28.453Z,45.21
2019-05-29T09:28:55.045Z,49.13
2019-05-29T09:31:22.187Z,48.69
2019-05-29T09:33:48.968Z,47.98
2019-05-29T09:36:17.034Z,46.25
2019-05-29T09:38:44.039Z,45.65
2019-05-29T09:41:10.617Z,45.62
2019-05-29T09:43:37.194Z,45.84
2019-05-29T09:46:03.875Z,48.86
2019-05-29T09:48:30.525Z,47.20
2019-05-29T09:50:57.139Z,48.84
2019-05-29T09:53:23.783Z,48.13
2019-05-29T09:55:50.420Z,47.91
2019-05-29T09:58:17.434Z,47.05
2019-05-29T10:00:44.789Z,47.44
2019-05-29T10:03:12.346Z,47.70
2019-05-29T10:05:39.105Z,47.14
2019-05-29T10:08:05.913Z,44.86
2019-05-29T10:10:32.507Z,43.51
2019-05-29T10:13:02.813Z,41.01
2019-05-29T10:15:30.475Z,35.68
2019-05-29T10:17:58.431Z,30.07
2019-05-29T10:20:25.488Z,30.48
2019-05-29T10:22:52.068Z,26.26
2019-05-29T10:25:18.837Z,25.45
2019-05-29T10:27:45.486Z,28.06
2019-05-29T10:30:12.933Z,28.72
2019-05-29T10:32:39.902Z,28.12
2019-05-29T10:35:06.760Z,24.71
2019-05-29T10:37:33.360Z,24.88
2019-05-29T10:40:00.018Z,23.56
2019-05-29T10:42:26.740Z,23.20
2019-05-29T10:44:53.370Z,22.71
2019-05-29T10:47:20.106Z,21.62
2019-05-29T10:49:47.660Z,22.16
2019-05-29T10:52:17.234Z,19.83
2019-05-29T10:54:44.027Z,24.60
2019-05-29T10:57:10.767Z,29.73
2019-05-29T10:59:37.471Z,33.96
2019-05-29T11:02:04.277Z,33.91
2019-05-29T11:04:31.625Z,29.02
2019-05-29T11:06:58.295Z,30.42
2019-05-29T11:09:25.011Z,33.78
2019-05-29T11:11:53.233Z,32.37
2019-05-29T11:14:20.474Z,30.18
2019-05-29T11:16:47.171Z,28.22
2019-05-29T11:19:13.838Z,24.90
2019-05-29T11:21:40.649Z,21.56
2019-05-29T11:24:08.169Z,22.05
2019-05-29T11:26:34.838Z,22.10
2019-05-29T11:29:01.739Z,23.36
2019-05-29T11:31:28.490Z,27.87
2019-05-29T11:33:55.156Z,28.55
2019-05-29T11:36:21.848Z,32.65
2019-05-29T11:38:48.432Z,35.25
2019-05-29T11:41:25.991Z,35.98
2019-05-29T11:43:43.726Z,29.25
2019-05-29T11:46:12.106Z,22.26
2019-05-29T11:48:39.875Z,20.83
2019-05-29T11:51:06.960Z,21.18
2019-05-29T11:53:33.649Z,22.44
2019-05-29T11:56:02.846Z,20.50
2019-05-29T11:58:31.800Z,19.97
2019-05-29T12:00:59.208Z,20.43
2019-05-29T12:03:26.019Z,20.81
2019-05-29T12:05:53.504Z,19.85
2019-05-29T12:08:20.340Z,19.72
2019-05-29T12:10:46.934Z,20.75
2019-05-29T12:13:13.995Z,23.39
2019-05-29T12:15:40.614Z,29.61
2019-05-29T12:18:22.739Z,30.79
2019-05-29T12:20:36.191Z,24.17
2019-05-29T12:23:25.615Z,25.28
2019-05-29T12:25:31.514Z,26.39
2019-05-29T12:27:59.239Z,22.57
2019-05-29T12:30:26.357Z,22.41
2019-05-29T12:32:53.049Z,28.28
2019-05-29T12:35:19.638Z,28.86
2019-05-29T12:37:46.320Z,24.21
2019-05-29T12:40:13.476Z,23.03
2019-05-29T12:42:44.507Z,24.77
2019-05-29T12:45:10.975Z,21.50
2019-05-29T12:47:37.717Z,20.98
2019-05-29T12:50:06.709Z,21.36
2019-05-29T12:52:33.285Z,21.31
2019-05-29T12:55:00.116Z,21.32
2019-05-29T12:57:28.582Z,22.21
2019-05-29T12:59:57.988Z,22.13
2019-05-29T13:02:24.762Z,26.25
2019-05-29T13:05:16.029Z,29.69
2019-05-29T13:07:23.415Z,32.42
2019-05-29T13:09:50.768Z,29.16
2019-05-29T13:12:17.474Z,31.94
2019-05-29T13:14:44.049Z,33.22
2019-05-29T13:17:11.180Z,33.99
2019-05-29T13:19:38.153Z,31.33
2019-05-29T13:22:06.505Z,34.45
2019-05-29T13:24:33.208Z,31.17
2019-05-29T13:27:01.744Z,33.88
2019-05-29T13:29:28.545Z,32.43
2019-05-29T13:31:57.122Z,32.46
2019-05-29T13:34:27.014Z,32.97
2019-05-29T13:36:59.817Z,28.99
2019-05-29T13:39:23.270Z,29.51
2019-05-29T13:41:49.879Z,28.33
2019-05-29T13:44:16.490Z,31.75
2019-05-29T13:46:43.143Z,28.86
2019-05-29T13:49:09.892Z,29.14
2019-05-29T13:51:36.466Z,31.69
2019-05-29T13:54:11.035Z,26.81
2019-05-29T13:56:32.140Z,28.82
2019-05-29T13:58:59.900Z,30.04
2019-05-29T14:01:26.525Z,30.37
2019-05-29T14:03:53.253Z,31.98
2019-05-29T14:06:19.857Z,33.22
2019-05-29T14:08:46.925Z,31.42
2019-05-29T14:11:14.011Z,29.73
2019-05-29T14:13:40.629Z,29.81
2019-05-29T14:16:08.504Z,31.68
2019-05-29T14:18:35.269Z,31.73
2019-05-29T14:21:03.128Z,32.29
2019-05-29T14:23:30.059Z,33.62
2019-05-29T14:25:56.832Z,30.13
2019-05-29T14:28:23.525Z,27.07
2019-05-29T14:30:50.435Z,34.30
2019-05-29T14:33:17.104Z,30.88
2019-05-29T14:35:44.010Z,28.42
2019-05-29T14:38:14.554Z,29.71
2019-05-29T14:40:39.790Z,29.60
2019-05-29T14:43:10.149Z,30.73
2019-05-29T14:45:35.320Z,30.96
2019-05-29T14:48:02.216Z,31.38
2019-05-29T14:50:28.948Z,28.17
2019-05-29T14:52:56.223Z,34.13
2019-05-29T14:55:22.884Z,30.50
2019-05-29T14:57:49.569Z,29.66
2019-05-29T15:00:24.716Z,32.30
2019-05-29T15:02:45.717Z,33.16
2019-05-29T15:05:15.039Z,34.30
2019-05-29T15:07:42.264Z,31.21
2019-05-29T15:10:23.895Z,27.97
2019-05-29T15:12:38.428Z,31.62
2019-05-29T15:15:06.721Z,30.92
2019-05-29T15:17:33.416Z,31.33
2019-05-29T15:20:00.157Z,28.99
2019-05-29T15:22:26.929Z,29.29
2019-05-29T15:25:03.198Z,29.02
2019-05-29T15:27:22.456Z,28.72
2019-05-29T15:29:50.101Z,30.37
2019-05-29T15:32:17.172Z,29.73
2019-05-29T15:34:47.282Z,30.12
2019-05-29T15:37:16.973Z,31.16
2019-05-29T15:39:42.833Z,30.17
2019-05-29T15:42:10.805Z,27.71
2019-05-29T15:44:37.605Z,31.19
2019-05-29T15:47:04.350Z,30.65
2019-05-29T15:49:31.009Z,30.10
2019-05-29T15:51:57.669Z,25.87
2019-05-29T15:54:24.230Z,28.31
2019-05-29T15:56:50.944Z,26.93
2019-05-29T15:59:19.160Z,27.97
2019-05-29T16:01:46.008Z,28.53
2019-05-29T16:04:13.783Z,24.72
2019-05-29T16:06:40.439Z,26.19
2019-05-29T16:09:08.176Z,26.59
2019-05-29T16:11:35.244Z,27.55
2019-05-29T16:14:02.008Z,28.44
2019-05-29T16:16:28.622Z,27.16
2019-05-29T16:18:55.245Z,25.48
2019-05-29T16:21:23.038Z,27.44
2019-05-29T16:23:50.083Z,27.11
2019-05-29T16:26:18.282Z,27.24
2019-05-29T16:28:45.629Z,26.40
2019-05-29T16:31:12.550Z,26.76
2019-05-29T16:33:39.399Z,26.26
2019-05-29T16:36:06.027Z,27.18
2019-05-29T16:38:33.684Z,26.40
2019-05-29T16:41:00.320Z,25.99
2019-05-29T16:43:26.946Z,28.37
2019-05-29T16:45:53.548Z,27.09
2019-05-29T16:48:20.671Z,27.24
2019-05-29T16:50:47.546Z,28.83
2019-05-29T16:53:14.695Z,26.11
2019-05-29T16:55:53.547Z,24.67
2019-05-29T16:58:10.516Z,27.74
2019-05-29T17:00:37.291Z,25.86
2019-05-29T17:03:04.063Z,30.16
2019-05-29T17:05:30.754Z,27.39
2019-05-29T17:07:57.439Z,29.60
2019-05-29T17:10:34.011Z,29.90
2019-05-29T17:13:00.633Z,30.04
2019-05-29T17:15:29.088Z,29.77
2019-05-29T17:17:55.846Z,30.64
2019-05-29T17:20:37.152Z,28.20
2019-05-29T17:23:04.133Z,28.71
2019-05-29T17:25:30.769Z,28.04
2019-05-29T17:27:57.428Z,29.80
2019-05-29T17:30:29.394Z,29.58
2019-05-29T17:32:56.198Z,30.74
2019-05-29T17:35:25.221Z,32.28
2019-05-29T17:37:52.281Z,31.72
2019-05-29T17:40:19.213Z,29.93
2019-05-29T17:42:45.778Z,33.58
2019-05-29T17:45:19.595Z,30.99
2019-05-29T17:47:44.471Z,30.07
2019-05-29T17:50:11.720Z,30.12
2019-05-29T17:52:38.399Z,29.86
2019-05-29T17:55:05.294Z,32.94
2019-05-29T17:57:32.610Z,35.30
2019-05-29T18:00:00.214Z,31.71
2019-05-29T18:02:26.896Z,34.78
2019-05-29T18:04:53.759Z,27.53
2019-05-29T18:07:24.704Z,31.53
2019-05-29T18:09:51.473Z,28.00
2019-05-29T18:12:19.190Z,32.16
2019-05-29T18:14:46.455Z,33.42
2019-05-29T18:17:13.066Z,37.47
2019-05-29T18:19:39.754Z,34.81
2019-05-29T18:22:09.519Z,36.98
2019-05-29T18:24:36.116Z,35.60
2019-05-29T18:27:02.946Z,37.49
2019-05-29T18:29:29.832Z,37.76
2019-05-29T18:31:56.677Z,37.23
2019-05-29T18:34:25.109Z,39.33
2019-05-29T18:36:52.070Z,38.19
2019-05-29T18:39:20.204Z,37.87
2019-05-29T18:41:46.971Z,39.62
2019-05-29T18:44:13.560Z,38.89
2019-05-29T18:46:40.273Z,36.14
2019-05-29T18:49:06.886Z,40.42
2019-05-29T18:51:33.774Z,38.30
2019-05-29T18:54:00.521Z,41.72
2019-05-29T18:56:28.107Z,43.46
2019-05-29T18:58:54.835Z,43.03
2019-05-29T19:01:21.604Z,44.85
2019-05-29T19:03:48.513Z,42.74
2019-05-29T19:06:15.198Z,44.00
2019-05-29T19:08:42.203Z,43.61
2019-05-29T19:11:08.993Z,45.33
2019-05-29T19:13:35.693Z,44.11
2019-05-29T19:16:02.248Z,45.99
2019-05-29T19:18:30.130Z,45.58
2019-05-29T19:20:56.836Z,47.49
2019-05-29T19:23:24.641Z,45.54
2019-05-29T19:25:51.516Z,47.45
2019-05-29T19:28:18.174Z,47.47
2019-05-29T19:30:44.991Z,46.07
2019-05-29T19:33:12.672Z,48.21
2019-05-29T19:35:39.318Z,48.33
2019-05-29T19:38:07.042Z,48.98
2019-05-29T19:40:34.544Z,47.01
2019-05-29T19:43:01.336Z,48.71
2019-05-29T19:45:28.591Z,49.21
2019-05-29T19:47:56.733Z,49.57
2019-05-29T19:50:24.591Z,50.45
2019-05-29T19:52:51.312Z,51.23
2019-05-29T19:55:17.995Z,47.38
2019-05-29T19:57:55.889Z,49.01
2019-05-29T20:00:13.405Z,44.88
2019-05-29T20:02:40.213Z,46.99
2019-05-29T20:05:18.276Z,48.95
2019-05-29T20:07:54.963Z,47.90
2019-05-29T20:10:22.520Z,48.99
2019-05-29T20:12:49.284Z,49.53
2019-05-29T20:15:16.045Z,49.63
2019-05-29T20:17:43.415Z,51.11
2019-05-29T20:20:10.114Z,51.40
2019-05-29T20:22:37.081Z,51.95
2019-05-29T20:25:04.808Z,52.44
2019-05-29T20:27:32.088Z,52.00
2019-05-29T20:29:58.692Z,53.08
2019-05-29T20:32:25.353Z,52.96
2019-05-29T20:34:53.780Z,52.96
2019-05-29T20:37:20.536Z,53.72
2019-05-29T20:39:48.422Z,53.28
2019-05-29T20:42:15.112Z,53.42
2019-05-29T20:44:43.001Z,53.66
2019-05-29T20:47:09.989Z,52.24
2019-05-29T20:49:37.798Z,52.56
2019-05-29T20:52:07.231Z,51.15
2019-05-29T20:54:34.062Z,51.96
2019-05-29T20:57:09.621Z,52.22
2019-05-29T20:59:36.335Z,52.75
2019-05-29T21:02:03.552Z,52.67
2019-05-29T21:04:30.188Z,50.37
2019-05-29T21:06:56.787Z,51.49
2019-05-29T21:09:23.610Z,52.05
2019-05-29T21:11:50.321Z,51.53
2019-05-29T21:14:16.919Z,51.04
2019-05-29T21:16:44.025Z,51.18
2019-05-29T21:19:10.757Z,50.93
2019-05-29T21:21:38.306Z,51.09
2019-05-29T21:24:05.032Z,49.87
2019-05-29T21:26:32.020Z,50.31
2019-05-29T21:28:58.773Z,50.20
2019-05-29T21:31:25.434Z,49.66
2019-05-29T21:33:53.993Z,50.20
2019-05-29T21:36:20.734Z,50.24
2019-05-29T21:38:47.393Z,49.87
2019-05-29T21:41:14.299Z,50.13
2019-05-29T21:43:40.992Z,50.21
2019-05-29T21:46:07.710Z,50.83
2019-05-29T21:48:36.903Z,50.51
2019-05-29T21:51:03.747Z,51.30
2019-05-29T21:53:30.508Z,49.89
2019-05-29T21:55:57.701Z,50.00
2019-05-29T21:58:24.534Z,50.74
2019-05-29T22:00:51.956Z,50.39
2019-05-29T22:03:20.639Z,50.39
2019-05-29T22:05:48.756Z,50.19
2019-05-29T22:08:15.945Z,50.05
2019-05-29T22:10:42.944Z,50.39
2019-05-29T22:13:09.737Z,50.25
2019-05-29T22:15:36.456Z,50.64
2019-05-29T22:18:05.760Z,49.74
2019-05-29T22:20:32.441Z,50.04
2019-05-29T22:22:59.830Z,50.32
2019-05-29T22:25:27.033Z,49.71
2019-05-29T22:27:53.806Z,49.86
2019-05-29T22:30:20.656Z,50.02
2019-05-29T22:32:47.258Z,49.93
2019-05-29T22:35:13.997Z,49.57
2019-05-29T22:37:40.709Z,50.09
2019-05-29T22:40:07.761Z,49.85
2019-05-29T22:42:34.473Z,50.13
2019-05-29T22:45:02.207Z,50.43
2019-05-29T22:47:29.047Z,50.12
2019-05-29T22:49:55.866Z,50.44
2019-05-29T22:52:22.574Z,50.52
2019-05-29T22:54:49.196Z,50.53
2019-05-29T22:57:16.126Z,49.93
2019-05-29T22:59:43.684Z,50.38
2019-05-29T23:02:10.380Z,50.10
2019-05-29T23:04:37.000Z,50.03
2019-05-29T23:07:03.810Z,50.26
2019-05-29T23:09:30.513Z,50.43
2019-05-29T23:11:58.246Z,51.07
2019-05-29T23:14:24.954Z,51.16
2019-05-29T23:16:52.403Z,50.68
2019-05-29T23:19:19.181Z,51.22
2019-05-29T23:21:45.845Z,51.03
2019-05-29T23:24:12.428Z,50.91
2019-05-29T23:26:41.739Z,51.01
2019-05-29T23:29:08.324Z,51.85
2019-05-29T23:31:35.034Z,51.96
2019-05-29T23:34:03.293Z,51.46
2019-05-29T23:36:30.073Z,51.68
2019-05-29T23:38:57.267Z,52.09
2019-05-29T23:41:24.037Z,52.58
2019-05-29T23:43:50.737Z,52.32
2019-05-29T23:46:17.406Z,52.12
2019-05-29T23:48:44.055Z,52.71
2019-05-29T23:51:10.652Z,52.64
2019-05-29T23:53:37.318Z,52.93
2019-05-29T23:56:04.417Z,52.98
2019-05-29T23:58:31.128Z,53.44
